sensor_id;sensor_type;location;lat;lon;timestamp;P1;durP1;ratioP1;P2;durP2;ratioP2
14681;SDS011;7429;52.498;13.480;2023-02-02T00:01:27;23.30;;;6.87;;
14681;SDS011;7429;52.498;13.480;2023-02-02T00:04:33;13.73;;;6.53;;
14681;SDS011;7429;52.498;13.480;2023-02-02T00:07:38;19.53;;;6.53;;
14681;SDS011;7429;52.498;13.480;2023-02-02T00:10:41;19.23;;;7.73;;
14681;SDS011;7429;52.498;13.480;2023-02-02T00:13:45;18.80;;;7.27;;
14681;SDS011;7429;52.498;13.480;2023-02-02T00:16:49;27.60;;;6.43;;
14681;SDS011;7429;52.498;13.480;2023-02-02T00:19:55;20.17;;;5.83;;
14681;SDS011;7429;52.498;13.480;2023-02-02T00:22:58;16.07;;;6.23;;
14681;SDS011;7429;52.498;13.480;2023-02-02T00:26:01;17.87;;;7.17;;
14681;SDS011;7429;52.498;13.480;2023-02-02T00:29:05;22.50;;;8.43;;
14681;SDS011;7429;52.498;13.480;2023-02-02T00:32:11;23.17;;;7.57;;
14681;SDS011;7429;52.498;13.480;2023-02-02T00:35:15;25.30;;;6.67;;
14681;SDS011;7429;52.498;13.480;2023-02-02T00:38:19;19.43;;;7.57;;
14681;SDS011;7429;52.498;13.480;2023-02-02T00:41:24;19.27;;;7.03;;
14681;SDS011;7429;52.498;13.480;2023-02-02T00:44:27;23.70;;;8.63;;
14681;SDS011;7429;52.498;13.480;2023-02-02T00:47:48;20.53;;;7.07;;
14681;SDS011;7429;52.498;13.480;2023-02-02T00:50:53;21.10;;;5.23;;
14681;SDS011;7429;52.498;13.480;2023-02-02T00:53:57;19.93;;;7.40;;
14681;SDS011;7429;52.498;13.480;2023-02-02T00:57:00;23.70;;;6.40;;
14681;SDS011;7429;52.498;13.480;2023-02-02T01:00:05;25.07;;;7.00;;
14681;SDS011;7429;52.498;13.480;2023-02-02T01:03:13;20.23;;;5.63;;
14681;SDS011;7429;52.498;13.480;2023-02-02T01:06:18;21.70;;;7.67;;
14681;SDS011;7429;52.498;13.480;2023-02-02T01:09:24;19.87;;;6.27;;
14681;SDS011;7429;52.498;13.480;2023-02-02T01:12:33;14.17;;;6.13;;
14681;SDS011;7429;52.498;13.480;2023-02-02T01:15:39;23.67;;;6.93;;
14681;SDS011;7429;52.498;13.480;2023-02-02T01:18:42;18.73;;;6.63;;
14681;SDS011;7429;52.498;13.480;2023-02-02T01:21:47;21.07;;;6.27;;
14681;SDS011;7429;52.498;13.480;2023-02-02T01:24:53;19.60;;;6.30;;
14681;SDS011;7429;52.498;13.480;2023-02-02T01:27:56;20.53;;;7.57;;
14681;SDS011;7429;52.498;13.480;2023-02-02T01:31:04;22.23;;;5.73;;
14681;SDS011;7429;52.498;13.480;2023-02-02T01:34:12;20.63;;;5.30;;
14681;SDS011;7429;52.498;13.480;2023-02-02T01:37:16;23.50;;;8.00;;
14681;SDS011;7429;52.498;13.480;2023-02-02T01:40:19;21.57;;;7.97;;
14681;SDS011;7429;52.498;13.480;2023-02-02T01:43:24;24.57;;;6.53;;
14681;SDS011;7429;52.498;13.480;2023-02-02T01:46:30;15.50;;;5.63;;
14681;SDS011;7429;52.498;13.480;2023-02-02T01:49:35;26.90;;;6.70;;
14681;SDS011;7429;52.498;13.480;2023-02-02T01:52:40;22.33;;;7.10;;
14681;SDS011;7429;52.498;13.480;2023-02-02T01:55:47;18.93;;;6.40;;
14681;SDS011;7429;52.498;13.480;2023-02-02T01:58:53;21.40;;;6.47;;
14681;SDS011;7429;52.498;13.480;2023-02-02T02:01:57;15.67;;;6.33;;
14681;SDS011;7429;52.498;13.480;2023-02-02T02:05:02;18.47;;;5.73;;
14681;SDS011;7429;52.498;13.480;2023-02-02T02:08:11;20.20;;;5.93;;
14681;SDS011;7429;52.498;13.480;2023-02-02T02:11:19;18.37;;;6.27;;
14681;SDS011;7429;52.498;13.480;2023-02-02T02:14:23;17.37;;;6.17;;
14681;SDS011;7429;52.498;13.480;2023-02-02T02:17:49;21.27;;;6.77;;
14681;SDS011;7429;52.498;13.480;2023-02-02T02:21:11;18.17;;;6.00;;
14681;SDS011;7429;52.498;13.480;2023-02-02T02:25:06;15.47;;;6.00;;
14681;SDS011;7429;52.498;13.480;2023-02-02T02:28:54;27.83;;;6.20;;
14681;SDS011;7429;52.498;13.480;2023-02-02T02:32:29;20.57;;;6.37;;
14681;SDS011;7429;52.498;13.480;2023-02-02T02:35:41;21.23;;;7.23;;
14681;SDS011;7429;52.498;13.480;2023-02-02T02:39:03;21.10;;;6.13;;
14681;SDS011;7429;52.498;13.480;2023-02-02T02:42:16;16.00;;;6.73;;
14681;SDS011;7429;52.498;13.480;2023-02-02T02:45:24;18.43;;;6.83;;
14681;SDS011;7429;52.498;13.480;2023-02-02T02:48:31;16.13;;;6.23;;
14681;SDS011;7429;52.498;13.480;2023-02-02T02:51:38;18.33;;;6.13;;
14681;SDS011;7429;52.498;13.480;2023-02-02T02:54:52;18.33;;;6.07;;
14681;SDS011;7429;52.498;13.480;2023-02-02T02:58:00;16.57;;;6.07;;
14681;SDS011;7429;52.498;13.480;2023-02-02T03:01:12;17.60;;;5.67;;
14681;SDS011;7429;52.498;13.480;2023-02-02T03:04:24;15.43;;;5.57;;
14681;SDS011;7429;52.498;13.480;2023-02-02T03:07:36;14.70;;;6.20;;
14681;SDS011;7429;52.498;13.480;2023-02-02T03:10:43;14.13;;;5.73;;
14681;SDS011;7429;52.498;13.480;2023-02-02T03:13:48;19.53;;;6.60;;
14681;SDS011;7429;52.498;13.480;2023-02-02T03:16:52;18.47;;;6.40;;
14681;SDS011;7429;52.498;13.480;2023-02-02T03:19:56;18.67;;;5.80;;
14681;SDS011;7429;52.498;13.480;2023-02-02T03:23:00;19.37;;;6.23;;
14681;SDS011;7429;52.498;13.480;2023-02-02T03:26:03;12.17;;;6.27;;
14681;SDS011;7429;52.498;13.480;2023-02-02T03:29:07;10.33;;;6.53;;
14681;SDS011;7429;52.498;13.480;2023-02-02T03:32:10;14.10;;;5.70;;
14681;SDS011;7429;52.498;13.480;2023-02-02T03:35:15;15.10;;;6.00;;
14681;SDS011;7429;52.498;13.480;2023-02-02T03:38:21;12.60;;;7.47;;
14681;SDS011;7429;52.498;13.480;2023-02-02T03:41:24;20.43;;;9.60;;
14681;SDS011;7429;52.498;13.480;2023-02-02T03:44:27;10.37;;;4.57;;
14681;SDS011;7429;52.498;13.480;2023-02-02T03:47:30;15.43;;;5.67;;
14681;SDS011;7429;52.498;13.480;2023-02-02T03:50:35;15.00;;;6.50;;
14681;SDS011;7429;52.498;13.480;2023-02-02T03:53:39;15.40;;;5.93;;
14681;SDS011;7429;52.498;13.480;2023-02-02T03:56:44;13.53;;;5.63;;
14681;SDS011;7429;52.498;13.480;2023-02-02T03:59:47;10.97;;;5.93;;
14681;SDS011;7429;52.498;13.480;2023-02-02T04:02:52;16.30;;;4.97;;
14681;SDS011;7429;52.498;13.480;2023-02-02T04:05:57;18.10;;;6.53;;
14681;SDS011;7429;52.498;13.480;2023-02-02T04:09:00;15.00;;;5.77;;
14681;SDS011;7429;52.498;13.480;2023-02-02T04:12:04;12.93;;;5.37;;
14681;SDS011;7429;52.498;13.480;2023-02-02T04:15:07;14.43;;;6.00;;
14681;SDS011;7429;52.498;13.480;2023-02-02T04:18:11;9.13;;;4.90;;
14681;SDS011;7429;52.498;13.480;2023-02-02T04:21:16;8.90;;;5.23;;
14681;SDS011;7429;52.498;13.480;2023-02-02T04:24:19;14.90;;;5.33;;
14681;SDS011;7429;52.498;13.480;2023-02-02T04:27:25;14.23;;;5.07;;
14681;SDS011;7429;52.498;13.480;2023-02-02T04:30:28;15.23;;;4.50;;
14681;SDS011;7429;52.498;13.480;2023-02-02T04:33:32;11.83;;;5.57;;
14681;SDS011;7429;52.498;13.480;2023-02-02T04:36:37;11.00;;;4.77;;
14681;SDS011;7429;52.498;13.480;2023-02-02T04:39:41;9.47;;;5.53;;
14681;SDS011;7429;52.498;13.480;2023-02-02T04:42:44;10.07;;;4.33;;
14681;SDS011;7429;52.498;13.480;2023-02-02T04:45:47;9.47;;;4.23;;
14681;SDS011;7429;52.498;13.480;2023-02-02T04:48:57;10.00;;;4.57;;
14681;SDS011;7429;52.498;13.480;2023-02-02T04:52:02;13.80;;;5.87;;
14681;SDS011;7429;52.498;13.480;2023-02-02T04:55:05;21.47;;;4.93;;
14681;SDS011;7429;52.498;13.480;2023-02-02T04:58:09;7.83;;;4.20;;
14681;SDS011;7429;52.498;13.480;2023-02-02T05:01:14;12.77;;;5.27;;
14681;SDS011;7429;52.498;13.480;2023-02-02T05:04:21;13.93;;;4.13;;
14681;SDS011;7429;52.498;13.480;2023-02-02T05:07:25;9.73;;;5.10;;
14681;SDS011;7429;52.498;13.480;2023-02-02T05:10:29;14.97;;;5.40;;
14681;SDS011;7429;52.498;13.480;2023-02-02T05:13:33;15.07;;;5.03;;
14681;SDS011;7429;52.498;13.480;2023-02-02T05:16:36;18.70;;;5.53;;
14681;SDS011;7429;52.498;13.480;2023-02-02T05:19:40;9.67;;;4.77;;
14681;SDS011;7429;52.498;13.480;2023-02-02T05:22:45;10.03;;;5.37;;
14681;SDS011;7429;52.498;13.480;2023-02-02T05:25:50;13.47;;;5.43;;
14681;SDS011;7429;52.498;13.480;2023-02-02T05:28:54;12.93;;;4.37;;
14681;SDS011;7429;52.498;13.480;2023-02-02T05:31:58;19.33;;;5.33;;
14681;SDS011;7429;52.498;13.480;2023-02-02T05:35:02;14.70;;;6.17;;
14681;SDS011;7429;52.498;13.480;2023-02-02T05:38:07;22.23;;;6.20;;
14681;SDS011;7429;52.498;13.480;2023-02-02T05:41:10;10.50;;;4.83;;
14681;SDS011;7429;52.498;13.480;2023-02-02T05:44:15;14.90;;;5.90;;
14681;SDS011;7429;52.498;13.480;2023-02-02T05:47:18;17.60;;;4.93;;
14681;SDS011;7429;52.498;13.480;2023-02-02T05:50:22;16.47;;;7.17;;
14681;SDS011;7429;52.498;13.480;2023-02-02T05:53:36;14.53;;;5.57;;
14681;SDS011;7429;52.498;13.480;2023-02-02T05:56:40;14.97;;;5.70;;
14681;SDS011;7429;52.498;13.480;2023-02-02T05:59:43;12.70;;;4.63;;
14681;SDS011;7429;52.498;13.480;2023-02-02T06:02:47;19.50;;;5.63;;
14681;SDS011;7429;52.498;13.480;2023-02-02T06:05:50;15.90;;;5.07;;
14681;SDS011;7429;52.498;13.480;2023-02-02T06:08:55;22.07;;;5.63;;
14681;SDS011;7429;52.498;13.480;2023-02-02T06:11:58;14.23;;;5.83;;
14681;SDS011;7429;52.498;13.480;2023-02-02T06:15:01;15.57;;;7.07;;
14681;SDS011;7429;52.498;13.480;2023-02-02T06:18:05;12.93;;;5.53;;
14681;SDS011;7429;52.498;13.480;2023-02-02T06:21:09;11.03;;;5.53;;
14681;SDS011;7429;52.498;13.480;2023-02-02T06:24:13;23.83;;;6.47;;
14681;SDS011;7429;52.498;13.480;2023-02-02T06:27:18;13.00;;;5.63;;
14681;SDS011;7429;52.498;13.480;2023-02-02T06:30:21;22.97;;;4.90;;
14681;SDS011;7429;52.498;13.480;2023-02-02T06:33:25;12.30;;;5.90;;
14681;SDS011;7429;52.498;13.480;2023-02-02T06:36:28;19.47;;;5.97;;
14681;SDS011;7429;52.498;13.480;2023-02-02T06:39:33;21.20;;;5.70;;
14681;SDS011;7429;52.498;13.480;2023-02-02T06:42:36;14.13;;;5.47;;
14681;SDS011;7429;52.498;13.480;2023-02-02T06:45:39;16.87;;;7.00;;
14681;SDS011;7429;52.498;13.480;2023-02-02T06:48:43;13.07;;;5.20;;
14681;SDS011;7429;52.498;13.480;2023-02-02T06:51:49;12.93;;;4.80;;
14681;SDS011;7429;52.498;13.480;2023-02-02T06:54:56;24.70;;;5.90;;
14681;SDS011;7429;52.498;13.480;2023-02-02T06:58:05;14.90;;;4.53;;
14681;SDS011;7429;52.498;13.480;2023-02-02T07:01:11;20.00;;;5.30;;
14681;SDS011;7429;52.498;13.480;2023-02-02T07:04:16;18.63;;;5.37;;
14681;SDS011;7429;52.498;13.480;2023-02-02T07:07:19;12.97;;;4.63;;
14681;SDS011;7429;52.498;13.480;2023-02-02T07:10:26;9.63;;;5.20;;
14681;SDS011;7429;52.498;13.480;2023-02-02T07:13:50;16.17;;;4.40;;
14681;SDS011;7429;52.498;13.480;2023-02-02T07:16:55;17.03;;;4.10;;
14681;SDS011;7429;52.498;13.480;2023-02-02T07:19:58;16.00;;;5.93;;
14681;SDS011;7429;52.498;13.480;2023-02-02T07:23:02;11.93;;;4.63;;
14681;SDS011;7429;52.498;13.480;2023-02-02T07:26:07;12.70;;;5.07;;
14681;SDS011;7429;52.498;13.480;2023-02-02T07:29:13;14.07;;;5.27;;
14681;SDS011;7429;52.498;13.480;2023-02-02T07:32:16;8.83;;;5.03;;
14681;SDS011;7429;52.498;13.480;2023-02-02T07:35:20;8.03;;;4.83;;
14681;SDS011;7429;52.498;13.480;2023-02-02T07:38:24;16.20;;;5.80;;
14681;SDS011;7429;52.498;13.480;2023-02-02T07:41:32;15.80;;;6.03;;
14681;SDS011;7429;52.498;13.480;2023-02-02T07:44:37;7.30;;;4.30;;
14681;SDS011;7429;52.498;13.480;2023-02-02T07:47:40;10.30;;;4.27;;
14681;SDS011;7429;52.498;13.480;2023-02-02T07:50:43;9.70;;;4.10;;
14681;SDS011;7429;52.498;13.480;2023-02-02T07:53:49;14.73;;;4.80;;
14681;SDS011;7429;52.498;13.480;2023-02-02T07:56:56;8.67;;;4.10;;
14681;SDS011;7429;52.498;13.480;2023-02-02T08:00:01;11.77;;;4.33;;
14681;SDS011;7429;52.498;13.480;2023-02-02T08:03:12;15.03;;;4.87;;
14681;SDS011;7429;52.498;13.480;2023-02-02T08:06:17;14.73;;;4.73;;
14681;SDS011;7429;52.498;13.480;2023-02-02T08:09:24;11.23;;;5.07;;
14681;SDS011;7429;52.498;13.480;2023-02-02T08:12:28;21.80;;;6.23;;
14681;SDS011;7429;52.498;13.480;2023-02-02T08:15:32;13.50;;;5.40;;
14681;SDS011;7429;52.498;13.480;2023-02-02T08:18:35;15.37;;;5.47;;
14681;SDS011;7429;52.498;13.480;2023-02-02T08:21:40;14.63;;;4.67;;
14681;SDS011;7429;52.498;13.480;2023-02-02T08:24:45;15.47;;;5.67;;
14681;SDS011;7429;52.498;13.480;2023-02-02T08:27:52;18.40;;;7.47;;
14681;SDS011;7429;52.498;13.480;2023-02-02T08:31:02;18.57;;;5.90;;
14681;SDS011;7429;52.498;13.480;2023-02-02T08:34:06;14.40;;;4.70;;
14681;SDS011;7429;52.498;13.480;2023-02-02T08:37:10;16.73;;;4.33;;
14681;SDS011;7429;52.498;13.480;2023-02-02T08:40:13;25.83;;;6.20;;
14681;SDS011;7429;52.498;13.480;2023-02-02T08:43:18;20.40;;;5.60;;
14681;SDS011;7429;52.498;13.480;2023-02-02T08:46:22;18.90;;;5.63;;
14681;SDS011;7429;52.498;13.480;2023-02-02T08:49:26;17.07;;;7.03;;
14681;SDS011;7429;52.498;13.480;2023-02-02T08:52:30;20.47;;;5.47;;
14681;SDS011;7429;52.498;13.480;2023-02-02T08:55:33;16.23;;;5.87;;
14681;SDS011;7429;52.498;13.480;2023-02-02T08:58:42;18.50;;;5.30;;
14681;SDS011;7429;52.498;13.480;2023-02-02T09:01:47;17.20;;;5.63;;
14681;SDS011;7429;52.498;13.480;2023-02-02T09:04:50;11.10;;;4.77;;
14681;SDS011;7429;52.498;13.480;2023-02-02T09:07:53;16.37;;;5.23;;
14681;SDS011;7429;52.498;13.480;2023-02-02T09:10:56;11.63;;;4.70;;
14681;SDS011;7429;52.498;13.480;2023-02-02T09:14:10;14.73;;;4.30;;
14681;SDS011;7429;52.498;13.480;2023-02-02T09:17:16;18.60;;;5.17;;
14681;SDS011;7429;52.498;13.480;2023-02-02T09:20:19;16.23;;;4.83;;
14681;SDS011;7429;52.498;13.480;2023-02-02T09:23:23;15.03;;;5.00;;
14681;SDS011;7429;52.498;13.480;2023-02-02T09:26:27;15.40;;;4.53;;
14681;SDS011;7429;52.498;13.480;2023-02-02T09:29:32;14.87;;;5.77;;
14681;SDS011;7429;52.498;13.480;2023-02-02T09:32:36;14.37;;;5.03;;
14681;SDS011;7429;52.498;13.480;2023-02-02T09:35:39;18.50;;;5.50;;
14681;SDS011;7429;52.498;13.480;2023-02-02T09:38:42;20.53;;;5.20;;
14681;SDS011;7429;52.498;13.480;2023-02-02T09:41:58;14.17;;;4.93;;
14681;SDS011;7429;52.498;13.480;2023-02-02T09:45:17;21.37;;;6.03;;
14681;SDS011;7429;52.498;13.480;2023-02-02T09:48:29;10.33;;;4.30;;
14681;SDS011;7429;52.498;13.480;2023-02-02T09:51:40;21.37;;;5.70;;
14681;SDS011;7429;52.498;13.480;2023-02-02T09:54:49;14.67;;;5.27;;
14681;SDS011;7429;52.498;13.480;2023-02-02T09:57:59;15.70;;;5.13;;
14681;SDS011;7429;52.498;13.480;2023-02-02T10:01:15;17.37;;;4.50;;
14681;SDS011;7429;52.498;13.480;2023-02-02T10:04:22;16.87;;;5.40;;
14681;SDS011;7429;52.498;13.480;2023-02-02T10:07:32;13.30;;;5.13;;
14681;SDS011;7429;52.498;13.480;2023-02-02T10:10:40;11.73;;;5.07;;
14681;SDS011;7429;52.498;13.480;2023-02-02T10:13:45;11.23;;;6.00;;
14681;SDS011;7429;52.498;13.480;2023-02-02T10:16:52;13.47;;;5.63;;
14681;SDS011;7429;52.498;13.480;2023-02-02T10:19:59;11.73;;;4.17;;
14681;SDS011;7429;52.498;13.480;2023-02-02T10:23:19;10.57;;;4.47;;
14681;SDS011;7429;52.498;13.480;2023-02-02T10:26:27;14.60;;;5.47;;
14681;SDS011;7429;52.498;13.480;2023-02-02T10:29:41;14.20;;;5.57;;
14681;SDS011;7429;52.498;13.480;2023-02-02T10:32:56;13.33;;;4.37;;
14681;SDS011;7429;52.498;13.480;2023-02-02T10:40:29;13.73;;;4.13;;
14681;SDS011;7429;52.498;13.480;2023-02-02T10:47:20;10.67;;;4.37;;
14681;SDS011;7429;52.498;13.480;2023-02-02T10:50:29;10.83;;;4.20;;
14681;SDS011;7429;52.498;13.480;2023-02-02T10:53:34;12.53;;;4.10;;
14681;SDS011;7429;52.498;13.480;2023-02-02T10:56:39;13.87;;;4.37;;
14681;SDS011;7429;52.498;13.480;2023-02-02T10:59:53;10.87;;;5.33;;
14681;SDS011;7429;52.498;13.480;2023-02-02T11:03:07;13.87;;;4.67;;
14681;SDS011;7429;52.498;13.480;2023-02-02T11:06:14;9.80;;;4.13;;
14681;SDS011;7429;52.498;13.480;2023-02-02T11:09:35;9.23;;;3.73;;
14681;SDS011;7429;52.498;13.480;2023-02-02T11:12:43;9.83;;;3.73;;
14681;SDS011;7429;52.498;13.480;2023-02-02T11:16:18;11.57;;;4.10;;
14681;SDS011;7429;52.498;13.480;2023-02-02T11:19:46;8.20;;;4.20;;
14681;SDS011;7429;52.498;13.480;2023-02-02T11:22:59;7.23;;;3.80;;
14681;SDS011;7429;52.498;13.480;2023-02-02T11:26:04;5.37;;;3.83;;
14681;SDS011;7429;52.498;13.480;2023-02-02T11:29:12;7.23;;;4.30;;
14681;SDS011;7429;52.498;13.480;2023-02-02T11:32:29;11.10;;;3.90;;
14681;SDS011;7429;52.498;13.480;2023-02-02T11:35:34;7.40;;;4.30;;
14681;SDS011;7429;52.498;13.480;2023-02-02T11:38:40;9.77;;;4.13;;
14681;SDS011;7429;52.498;13.480;2023-02-02T11:41:44;10.40;;;4.17;;
14681;SDS011;7429;52.498;13.480;2023-02-02T11:44:49;8.23;;;4.00;;
14681;SDS011;7429;52.498;13.480;2023-02-02T11:47:58;9.67;;;4.47;;
14681;SDS011;7429;52.498;13.480;2023-02-02T11:51:05;8.17;;;3.80;;
14681;SDS011;7429;52.498;13.480;2023-02-02T11:54:15;10.33;;;4.13;;
14681;SDS011;7429;52.498;13.480;2023-02-02T11:57:29;8.70;;;3.77;;
14681;SDS011;7429;52.498;13.480;2023-02-02T12:00:40;8.30;;;4.50;;
14681;SDS011;7429;52.498;13.480;2023-02-02T12:03:58;10.07;;;4.00;;
14681;SDS011;7429;52.498;13.480;2023-02-02T12:07:18;11.57;;;3.57;;
14681;SDS011;7429;52.498;13.480;2023-02-02T12:10:30;8.20;;;4.00;;
14681;SDS011;7429;52.498;13.480;2023-02-02T12:13:42;8.27;;;4.07;;
14681;SDS011;7429;52.498;13.480;2023-02-02T12:17:05;17.63;;;4.40;;
14681;SDS011;7429;52.498;13.480;2023-02-02T12:20:29;8.80;;;3.37;;
14681;SDS011;7429;52.498;13.480;2023-02-02T12:23:50;11.60;;;4.07;;
14681;SDS011;7429;52.498;13.480;2023-02-02T12:27:13;9.30;;;4.30;;
14681;SDS011;7429;52.498;13.480;2023-02-02T12:30:32;7.17;;;4.03;;
14681;SDS011;7429;52.498;13.480;2023-02-02T12:33:45;14.00;;;4.17;;
14681;SDS011;7429;52.498;13.480;2023-02-02T12:36:57;5.93;;;3.77;;
14681;SDS011;7429;52.498;13.480;2023-02-02T12:40:14;10.97;;;4.37;;
14681;SDS011;7429;52.498;13.480;2023-02-02T12:43:35;9.13;;;4.20;;
14681;SDS011;7429;52.498;13.480;2023-02-02T12:46:45;9.20;;;4.20;;
14681;SDS011;7429;52.498;13.480;2023-02-02T12:50:02;7.77;;;3.87;;
14681;SDS011;7429;52.498;13.480;2023-02-02T12:53:22;9.00;;;3.87;;
14681;SDS011;7429;52.498;13.480;2023-02-02T12:56:39;17.97;;;4.33;;
14681;SDS011;7429;52.498;13.480;2023-02-02T12:59:58;7.40;;;4.13;;
14681;SDS011;7429;52.498;13.480;2023-02-02T13:03:19;7.43;;;4.70;;
14681;SDS011;7429;52.498;13.480;2023-02-02T13:06:41;11.30;;;4.47;;
14681;SDS011;7429;52.498;13.480;2023-02-02T13:10:06;7.93;;;3.47;;
14681;SDS011;7429;52.498;13.480;2023-02-02T13:13:21;10.47;;;4.07;;
14681;SDS011;7429;52.498;13.480;2023-02-02T13:16:30;12.27;;;4.03;;
14681;SDS011;7429;52.498;13.480;2023-02-02T13:19:37;8.47;;;4.17;;
14681;SDS011;7429;52.498;13.480;2023-02-02T13:22:43;10.70;;;4.30;;
14681;SDS011;7429;52.498;13.480;2023-02-02T13:25:50;5.50;;;3.40;;
14681;SDS011;7429;52.498;13.480;2023-02-02T13:29:00;6.03;;;3.57;;
14681;SDS011;7429;52.498;13.480;2023-02-02T13:32:14;7.07;;;3.43;;
14681;SDS011;7429;52.498;13.480;2023-02-02T13:35:27;9.43;;;3.80;;
14681;SDS011;7429;52.498;13.480;2023-02-02T13:38:35;7.23;;;3.30;;
14681;SDS011;7429;52.498;13.480;2023-02-02T13:41:42;7.27;;;3.83;;
14681;SDS011;7429;52.498;13.480;2023-02-02T13:44:48;5.73;;;3.40;;
14681;SDS011;7429;52.498;13.480;2023-02-02T13:47:57;10.77;;;3.57;;
14681;SDS011;7429;52.498;13.480;2023-02-02T14:02:07;4.30;;;3.67;;
14681;SDS011;7429;52.498;13.480;2023-02-02T14:05:27;4.57;;;3.67;;
14681;SDS011;7429;52.498;13.480;2023-02-02T14:08:35;7.40;;;3.43;;
14681;SDS011;7429;52.498;13.480;2023-02-02T14:11:50;8.33;;;4.00;;
14681;SDS011;7429;52.498;13.480;2023-02-02T14:15:03;5.77;;;3.70;;
14681;SDS011;7429;52.498;13.480;2023-02-02T14:18:10;9.63;;;3.63;;
14681;SDS011;7429;52.498;13.480;2023-02-02T14:21:22;4.93;;;3.13;;
14681;SDS011;7429;52.498;13.480;2023-02-02T14:28:56;6.30;;;4.10;;
14681;SDS011;7429;52.498;13.480;2023-02-02T14:32:01;6.70;;;3.90;;
14681;SDS011;7429;52.498;13.480;2023-02-02T14:35:54;7.50;;;3.40;;
14681;SDS011;7429;52.498;13.480;2023-02-02T14:39:10;4.37;;;3.97;;
14681;SDS011;7429;52.498;13.480;2023-02-02T14:42:25;6.30;;;3.60;;
14681;SDS011;7429;52.498;13.480;2023-02-02T14:46:21;7.87;;;4.47;;
14681;SDS011;7429;52.498;13.480;2023-02-02T14:49:31;5.47;;;3.40;;
14681;SDS011;7429;52.498;13.480;2023-02-02T14:52:36;6.80;;;3.90;;
14681;SDS011;7429;52.498;13.480;2023-02-02T14:55:49;8.60;;;3.80;;
14681;SDS011;7429;52.498;13.480;2023-02-02T14:58:57;7.40;;;3.67;;
14681;SDS011;7429;52.498;13.480;2023-02-02T15:02:14;3.53;;;3.07;;
14681;SDS011;7429;52.498;13.480;2023-02-02T15:05:35;6.33;;;4.17;;
14681;SDS011;7429;52.498;13.480;2023-02-02T15:08:54;7.20;;;4.00;;
14681;SDS011;7429;52.498;13.480;2023-02-02T15:12:40;6.77;;;4.30;;
14681;SDS011;7429;52.498;13.480;2023-02-02T15:15:47;6.03;;;3.63;;
14681;SDS011;7429;52.498;13.480;2023-02-02T15:18:56;5.07;;;4.40;;
14681;SDS011;7429;52.498;13.480;2023-02-02T15:22:13;11.60;;;4.63;;
14681;SDS011;7429;52.498;13.480;2023-02-02T15:25:27;5.50;;;3.93;;
14681;SDS011;7429;52.498;13.480;2023-02-02T15:28:39;7.33;;;3.70;;
14681;SDS011;7429;52.498;13.480;2023-02-02T15:31:47;5.03;;;3.60;;
14681;SDS011;7429;52.498;13.480;2023-02-02T15:34:56;5.70;;;3.97;;
14681;SDS011;7429;52.498;13.480;2023-02-02T15:38:05;4.33;;;3.53;;
14681;SDS011;7429;52.498;13.480;2023-02-02T15:41:17;5.07;;;4.67;;
14681;SDS011;7429;52.498;13.480;2023-02-02T15:44:26;3.70;;;3.40;;
14681;SDS011;7429;52.498;13.480;2023-02-02T15:47:34;4.13;;;3.73;;
14681;SDS011;7429;52.498;13.480;2023-02-02T15:50:43;7.13;;;4.60;;
14681;SDS011;7429;52.498;13.480;2023-02-02T15:53:48;4.57;;;3.93;;
14681;SDS011;7429;52.498;13.480;2023-02-02T15:56:53;6.53;;;3.40;;
14681;SDS011;7429;52.498;13.480;2023-02-02T15:59:59;5.90;;;3.90;;
14681;SDS011;7429;52.498;13.480;2023-02-02T16:03:25;4.43;;;3.50;;
14681;SDS011;7429;52.498;13.480;2023-02-02T16:06:36;3.97;;;3.60;;
14681;SDS011;7429;52.498;13.480;2023-02-02T16:09:39;6.33;;;3.93;;
14681;SDS011;7429;52.498;13.480;2023-02-02T16:12:43;10.40;;;4.20;;
14681;SDS011;7429;52.498;13.480;2023-02-02T16:15:54;6.20;;;3.60;;
14681;SDS011;7429;52.498;13.480;2023-02-02T16:19:03;6.83;;;3.83;;
14681;SDS011;7429;52.498;13.480;2023-02-02T16:22:21;9.10;;;4.27;;
14681;SDS011;7429;52.498;13.480;2023-02-02T16:25:26;5.93;;;3.60;;
14681;SDS011;7429;52.498;13.480;2023-02-02T16:28:33;8.67;;;4.30;;
14681;SDS011;7429;52.498;13.480;2023-02-02T16:31:38;4.77;;;4.30;;
14681;SDS011;7429;52.498;13.480;2023-02-02T16:34:45;6.17;;;4.33;;
14681;SDS011;7429;52.498;13.480;2023-02-02T16:37:49;5.80;;;4.30;;
14681;SDS011;7429;52.498;13.480;2023-02-02T16:41:02;5.27;;;4.20;;
14681;SDS011;7429;52.498;13.480;2023-02-02T16:44:27;9.03;;;4.70;;
14681;SDS011;7429;52.498;13.480;2023-02-02T16:47:35;6.93;;;4.57;;
14681;SDS011;7429;52.498;13.480;2023-02-02T16:50:40;4.53;;;3.90;;
14681;SDS011;7429;52.498;13.480;2023-02-02T16:53:44;4.57;;;3.90;;
14681;SDS011;7429;52.498;13.480;2023-02-02T16:56:50;7.13;;;4.60;;
14681;SDS011;7429;52.498;13.480;2023-02-02T17:00:03;4.77;;;4.43;;
14681;SDS011;7429;52.498;13.480;2023-02-02T17:03:14;9.43;;;4.27;;
14681;SDS011;7429;52.498;13.480;2023-02-02T17:06:24;5.07;;;4.10;;
14681;SDS011;7429;52.498;13.480;2023-02-02T17:09:47;6.20;;;4.47;;
14681;SDS011;7429;52.498;13.480;2023-02-02T17:12:51;6.63;;;4.67;;
14681;SDS011;7429;52.498;13.480;2023-02-02T17:15:55;8.27;;;5.33;;
14681;SDS011;7429;52.498;13.480;2023-02-02T17:19:01;22.57;;;16.90;;
14681;SDS011;7429;52.498;13.480;2023-02-02T17:22:05;19.57;;;11.57;;
14681;SDS011;7429;52.498;13.480;2023-02-02T17:25:10;13.33;;;8.93;;
14681;SDS011;7429;52.498;13.480;2023-02-02T17:28:18;27.63;;;22.60;;
14681;SDS011;7429;52.498;13.480;2023-02-02T17:31:23;9.67;;;7.20;;
14681;SDS011;7429;52.498;13.480;2023-02-02T17:34:28;9.83;;;5.80;;
14681;SDS011;7429;52.498;13.480;2023-02-02T17:37:32;6.90;;;5.10;;
14681;SDS011;7429;52.498;13.480;2023-02-02T17:40:35;5.93;;;4.30;;
14681;SDS011;7429;52.498;13.480;2023-02-02T17:43:39;4.83;;;4.40;;
14681;SDS011;7429;52.498;13.480;2023-02-02T17:46:44;8.40;;;4.93;;
14681;SDS011;7429;52.498;13.480;2023-02-02T17:49:48;7.70;;;5.40;;
14681;SDS011;7429;52.498;13.480;2023-02-02T17:52:52;7.00;;;5.27;;
14681;SDS011;7429;52.498;13.480;2023-02-02T17:55:55;5.70;;;4.93;;
14681;SDS011;7429;52.498;13.480;2023-02-02T17:58:59;8.57;;;5.30;;
14681;SDS011;7429;52.498;13.480;2023-02-02T18:02:02;8.63;;;5.70;;
14681;SDS011;7429;52.498;13.480;2023-02-02T18:05:07;10.37;;;5.70;;
14681;SDS011;7429;52.498;13.480;2023-02-02T18:08:12;9.73;;;8.03;;
14681;SDS011;7429;52.498;13.480;2023-02-02T18:11:16;6.57;;;5.97;;
14681;SDS011;7429;52.498;13.480;2023-02-02T18:14:19;5.83;;;5.23;;
14681;SDS011;7429;52.498;13.480;2023-02-02T18:17:22;6.57;;;4.87;;
14681;SDS011;7429;52.498;13.480;2023-02-02T18:20:27;8.67;;;5.77;;
14681;SDS011;7429;52.498;13.480;2023-02-02T18:23:30;7.53;;;4.80;;
14681;SDS011;7429;52.498;13.480;2023-02-02T18:26:33;9.30;;;5.17;;
14681;SDS011;7429;52.498;13.480;2023-02-02T18:29:36;6.07;;;5.47;;
14681;SDS011;7429;52.498;13.480;2023-02-02T18:32:40;5.87;;;5.20;;
14681;SDS011;7429;52.498;13.480;2023-02-02T18:35:45;9.33;;;5.17;;
14681;SDS011;7429;52.498;13.480;2023-02-02T18:38:49;9.00;;;6.83;;
14681;SDS011;7429;52.498;13.480;2023-02-02T18:41:54;11.03;;;7.93;;
14681;SDS011;7429;52.498;13.480;2023-02-02T18:44:58;14.43;;;7.90;;
14681;SDS011;7429;52.498;13.480;2023-02-02T18:48:02;10.43;;;7.80;;
14681;SDS011;7429;52.498;13.480;2023-02-02T18:51:07;8.13;;;7.30;;
14681;SDS011;7429;52.498;13.480;2023-02-02T18:54:16;8.67;;;6.83;;
14681;SDS011;7429;52.498;13.480;2023-02-02T18:57:19;9.67;;;7.13;;
14681;SDS011;7429;52.498;13.480;2023-02-02T19:00:26;8.60;;;7.33;;
14681;SDS011;7429;52.498;13.480;2023-02-02T19:03:29;9.13;;;6.53;;
14681;SDS011;7429;52.498;13.480;2023-02-02T19:06:35;13.47;;;8.10;;